WetterOnline ( http://www.wetteronline.de )

Wetter aktuell Rotterdam

Aktuelles Wetter: Rotterdam Flughafen (-4m)

6-stündlich | Neueste Meldungen
Ortszeit Temperatur Wetter
Mi, 17.10. 8:00 12.1° C Nebel
Mi, 17.10. 2:00 13.6° C bedeckt
Di, 16.10. 20:00 14.2° C leicht bewölkt
Di, 16.10. 14:00 23.1° C bewölkt
Di, 16.10. 8:00 12.8° C wolkig
Di, 16.10. 2:00 11.4° C Nebel
Mo, 15.10. 20:00 16.7° C bedeckt
Mo, 15.10. 14:00 22.2° C bedeckt
Ortszeit Temperatur Wetter
Mi, 17.10. 13:00 18.2° C leicht bewölkt
Mi, 17.10. 12:55 19° C leicht bewölkt
Mi, 17.10. 12:25 17° C leicht bewölkt
Mi, 17.10. 12:00 17.7° C bewölkt
Mi, 17.10. 11:55 18° C leicht bewölkt
Mi, 17.10. 11:25 17° C -
Mi, 17.10. 11:00 17.4° C bedeckt
Mi, 17.10. 10:25 17° C bedeckt
Mi, 17.10. 10:00 16.3° C bewölkt
Mi, 17.10. 9:25 15° C leicht bewölkt, Dunst
Ortszeit Relative Feuchte Sichtweite
Mi, 17.10. 8:00 100% 0.3 km
Mi, 17.10. 2:00 85% 14 km
Di, 16.10. 20:00 85% 30 km
Di, 16.10. 14:00 51% 27 km
Di, 16.10. 8:00 100% 4.3 km
Di, 16.10. 2:00 100% 0.3 km
Mo, 15.10. 20:00 89% 30 km
Mo, 15.10. 14:00 58% 30 km
Ortszeit Relative Feuchte Sichtweite
Mi, 17.10. 13:00 74% 25 km
Mi, 17.10. 12:55 73% >10 km
Mi, 17.10. 12:25 83% >10 km
Mi, 17.10. 12:00 81% 22 km
Mi, 17.10. 11:55 77% >10 km
Mi, 17.10. 11:25 83% >10 km
Mi, 17.10. 11:00 85% 9 km
Mi, 17.10. 10:25 83% >10 km
Mi, 17.10. 10:00 88% 10 km
Mi, 17.10. 9:25 94% 4.6 km
Ortszeit Niederschlagsmenge Niederschlagsart
Mi, 17.10. 8:00 0.0 l/m2 in 12 Std. -
Mi, 17.10. 2:00 0.0 l/m2 in 6 Std. -
Di, 16.10. 20:00 0.0 l/m2 in 12 Std. -
Di, 16.10. 14:00 0.0 l/m2 in 6 Std. -
Di, 16.10. 8:00 0.0 l/m2 in 12 Std. -
Di, 16.10. 2:00 0.0 l/m2 in 6 Std. -
Mo, 15.10. 20:00 0.0 l/m2 in 12 Std. -
Mo, 15.10. 14:00 0.0 l/m2 in 6 Std. -
Ortszeit Niederschlagsmenge Niederschlagsart
Mi, 17.10. 13:00 keine Meldung -
Mi, 17.10. 12:55 keine Meldung -
Mi, 17.10. 12:25 keine Meldung -
Mi, 17.10. 12:00 0.0 l/m2 in 1 Std. -
Mi, 17.10. 11:55 keine Meldung -
Mi, 17.10. 11:25 keine Meldung -
Mi, 17.10. 11:00 0.0 l/m2 in 1 Std. -
Mi, 17.10. 10:25 keine Meldung -
Mi, 17.10. 10:00 0.0 l/m2 in 1 Std. -
Mi, 17.10. 9:25 keine Meldung -
Ortszeit Stärke Spitze Richtung
km/h Bft. km/h Grad Sektor
Mi, 17.10. 8:00 4 1 11 240° SW
Mi, 17.10. 2:00 7 2 18 250° W
Di, 16.10. 20:00 0 0 25 - -
Di, 16.10. 14:00 11 2 29 210° SW
Di, 16.10. 8:00 4 1 22 180° S
Di, 16.10. 2:00 0 0 7 - -
Mo, 15.10. 20:00 4 1 40 310° NW
Mo, 15.10. 14:00 22 4 43 210° SW
Ortszeit Stärke Spitze Richtung
km/h Bft. km/h Grad Sektor
Mi, 17.10. 13:00 7 2 18 240° SW
Mi, 17.10. 12:55 9 2 - 230° SW
Mi, 17.10. 12:25 7 2 - 270° W
Mi, 17.10. 12:00 11 2 18 250° W
Mi, 17.10. 11:55 7 2 - 270° W
Mi, 17.10. 11:25 9 2 - 240° SW
Mi, 17.10. 11:00 7 2 11 220° SW
Mi, 17.10. 10:25 4 1 - uml. uml.
Mi, 17.10. 10:00 4 1 7 200° S
Mi, 17.10. 9:25 4 1 - 210° SW
Ortszeit Untergrenze Bedeckung Gattung
total tief tief mittel hoch
Mi, 17.10. 8:00 8100 m 8/8 0/8 - - -
Mi, 17.10. 2:00 - 8/8 8/8 - - -
Di, 16.10. 20:00 9000 m 5/8 0/8 - - -
Di, 16.10. 14:00 5400 m 7/8 7/8 - - -
Di, 16.10. 8:00 - 5/8 5/8 - - -
Di, 16.10. 2:00 - 0/8 0/8 - - -
Mo, 15.10. 20:00 - 8/8 8/8 - - -
Mo, 15.10. 14:00 6900 m 8/8 8/8 - - -
Ortszeit Bedeckungsgrad in Achtel und Wolkenuntergrenze
Mi, 17.10. 13:00 1(570m) 4(10500m)
Mi, 17.10. 12:55 1-2(570m)
Mi, 17.10. 12:25 1-2(690m)
Mi, 17.10. 12:00 5(480m) 6(570m) 8(6600m)
Mi, 17.10. 11:55 3-4(450m)
Mi, 17.10. 11:25 keine Wolken(unter 1500 m)
Mi, 17.10. 11:00 8
Mi, 17.10. 10:25 8(1020m)
Mi, 17.10. 10:00 5(1110m) 8(6900m)
Mi, 17.10. 9:25 1-2(600m)
Ortszeit Luftdruck NN (hPa) Tendenz (hPa in 3 Std.)
Mi, 17.10. 8:00 1019 + 1,0
Mi, 17.10. 2:00 1018 + 0,3
Di, 16.10. 20:00 1018 + 0,2
Di, 16.10. 14:00 1018 + 0,1
Di, 16.10. 8:00 1017 + 0,5
Di, 16.10. 2:00 1016 + 0,8
Mo, 15.10. 20:00 1014 + 1,8
Mo, 15.10. 14:00 1011 + 0,7
Ortszeit Luftdruck NN (hPa) Tendenz (hPa in 3 Std.)
Mi, 17.10. 13:00 1019 + 0,3
Mi, 17.10. 12:55 1019 keine Meldung
Mi, 17.10. 12:25 1019 keine Meldung
Mi, 17.10. 12:00 1020 + 0,6
Mi, 17.10. 11:55 1019 keine Meldung
Mi, 17.10. 11:25 1019 keine Meldung
Mi, 17.10. 11:00 1019 + 0,8
Mi, 17.10. 10:25 1019 keine Meldung
Mi, 17.10. 10:00 1019 + 0,8
Mi, 17.10. 9:25 1018 keine Meldung
Ortszeit Schneehöhe (cm)
Mi, 17.10. 8:00 -
Mi, 17.10. 2:00 -
Di, 16.10. 20:00 -
Di, 16.10. 14:00 -
Di, 16.10. 8:00 -
Di, 16.10. 2:00 -
Mo, 15.10. 20:00 -
Mo, 15.10. 14:00 -
Ortszeit Schneehöhe (cm)
Mi, 17.10. 13:00 -
Mi, 17.10. 12:55 -
Mi, 17.10. 12:25 -
Mi, 17.10. 12:00 -
Mi, 17.10. 11:55 -
Mi, 17.10. 11:25 -
Mi, 17.10. 11:00 -
Mi, 17.10. 10:25 -
Mi, 17.10. 10:00 -
Mi, 17.10. 9:25 -
Link zu dieser Seite / Seite empfehlen

Das Wetter in ...